createdAt,value
2023-02-24T00:02:55.941Z,13.98
2023-02-24T00:06:00.128Z,11.75
2023-02-24T00:09:06.847Z,10.10
2023-02-24T00:12:14.123Z,10.82
2023-02-24T00:15:17.790Z,11.93
2023-02-24T00:18:22.603Z,10.60
2023-02-24T00:21:25.843Z,12.32
2023-02-24T00:24:29.406Z,12.60
2023-02-24T00:27:33.354Z,11.68
2023-02-24T00:30:36.617Z,11.82
2023-02-24T00:33:41.894Z,11.35
2023-02-24T00:36:44.918Z,9.13
2023-02-24T00:39:48.195Z,11.45
2023-02-24T00:42:54.014Z,11.93
2023-02-24T00:45:57.432Z,11.18
2023-02-24T00:49:05.502Z,11.15
2023-02-24T00:52:09.556Z,9.50
2023-02-24T00:55:15.148Z,9.73
2023-02-24T00:58:19.526Z,9.63
2023-02-24T01:01:24.677Z,10.05
2023-02-24T01:04:29.451Z,11.38
2023-02-24T01:07:33.079Z,10.13
2023-02-24T01:10:36.302Z,10.18
2023-02-24T01:13:38.450Z,10.32
2023-02-24T01:16:44.693Z,8.55
2023-02-24T01:19:50.312Z,11.90
2023-02-24T01:22:54.606Z,13.65
2023-02-24T01:26:00.030Z,14.00
2023-02-24T01:29:05.195Z,10.43
2023-02-24T01:32:12.934Z,10.15
2023-02-24T01:35:19.127Z,8.70
2023-02-24T01:38:23.360Z,10.65
2023-02-24T01:41:28.145Z,9.32
2023-02-24T01:45:12.682Z,10.77
2023-02-24T01:48:17.682Z,9.13
2023-02-24T01:51:23.039Z,8.40
2023-02-24T01:54:29.358Z,11.57
2023-02-24T01:57:38.644Z,11.50
2023-02-24T02:00:47.696Z,9.48
2023-02-24T02:03:52.324Z,9.55
2023-02-24T02:06:57.473Z,9.57
2023-02-24T02:10:04.157Z,7.95
2023-02-24T02:13:07.767Z,9.93
2023-02-24T02:16:37.867Z,10.75
2023-02-24T02:20:07.103Z,8.98
2023-02-24T02:23:37.389Z,8.02
2023-02-24T02:27:20.938Z,10.02
2023-02-24T02:30:55.404Z,8.38
2023-02-24T02:34:14.566Z,10.02
2023-02-24T02:37:27.725Z,8.25
2023-02-24T02:40:38.325Z,8.68
2023-02-24T02:43:50.109Z,8.45
2023-02-24T02:47:00.677Z,9.10
2023-02-24T02:50:18.459Z,8.13
2023-02-24T02:53:27.751Z,8.02
2023-02-24T02:56:34.779Z,11.73
2023-02-24T02:59:49.380Z,8.18
2023-02-24T03:02:56.032Z,10.65
2023-02-24T03:06:05.141Z,9.48
2023-02-24T03:09:16.081Z,9.25
2023-02-24T03:12:23.188Z,10.65
2023-02-24T03:15:30.293Z,9.20
2023-02-24T03:18:37.316Z,7.22
2023-02-24T03:21:45.378Z,7.63
2023-02-24T03:24:49.822Z,9.98
2023-02-24T03:28:05.750Z,6.38
2023-02-24T03:31:11.952Z,7.35
2023-02-24T03:34:20.841Z,7.53
2023-02-24T03:37:28.318Z,8.15
2023-02-24T03:40:35.866Z,7.47
2023-02-24T03:43:44.934Z,7.18
2023-02-24T03:46:48.078Z,7.50
2023-02-24T03:49:51.233Z,7.85
2023-02-24T03:53:03.852Z,7.90
2023-02-24T03:56:18.482Z,8.13
2023-02-24T03:59:30.941Z,6.68
2023-02-24T04:02:35.001Z,7.43
2023-02-24T04:05:48.339Z,6.38
2023-02-24T04:09:01.273Z,7.60
2023-02-24T04:12:13.888Z,6.97
2023-02-24T04:15:24.725Z,6.10
2023-02-24T04:18:32.028Z,6.68
2023-02-24T04:21:37.233Z,6.80
2023-02-24T04:24:45.586Z,6.22
2023-02-24T04:27:49.462Z,6.57
2023-02-24T04:30:57.246Z,5.45
2023-02-24T04:34:00.473Z,8.05
2023-02-24T04:37:11.191Z,5.57
2023-02-24T04:40:18.388Z,6.53
2023-02-24T04:43:21.424Z,5.90
2023-02-24T04:46:24.413Z,6.43
2023-02-24T04:49:28.255Z,5.97
2023-02-24T04:52:31.202Z,6.53
2023-02-24T04:55:40.143Z,5.05
2023-02-24T04:58:45.994Z,6.68
2023-02-24T05:01:51.689Z,5.72
2023-02-24T05:04:55.171Z,5.30
2023-02-24T05:08:02.961Z,6.10
2023-02-24T05:11:08.461Z,6.47
2023-02-24T05:14:14.582Z,6.10
2023-02-24T05:17:18.810Z,5.25
2023-02-24T05:20:39.599Z,5.47
2023-02-24T05:23:45.130Z,6.05
2023-02-24T05:26:49.515Z,5.13
2023-02-24T05:29:54.687Z,5.90
2023-02-24T05:32:58.702Z,7.65
2023-02-24T05:36:05.771Z,6.20
2023-02-24T05:39:12.373Z,5.95
2023-02-24T05:42:17.217Z,7.18
2023-02-24T05:45:20.186Z,5.53
2023-02-24T05:48:24.896Z,4.90
2023-02-24T05:51:35.043Z,6.07
2023-02-24T05:54:40.601Z,5.43
2023-02-24T05:57:44.981Z,5.88
2023-02-24T06:00:47.951Z,5.45
2023-02-24T06:03:54.392Z,6.45
2023-02-24T06:06:58.131Z,5.65
2023-02-24T06:10:05.084Z,5.07
2023-02-24T06:13:10.386Z,5.35
2023-02-24T06:16:15.148Z,4.50
2023-02-24T06:19:18.331Z,6.13
2023-02-24T06:22:24.058Z,4.32
2023-02-24T06:25:29.878Z,6.55
2023-02-24T06:28:34.587Z,4.80
2023-02-24T06:31:37.779Z,4.68
2023-02-24T06:34:41.362Z,4.35
2023-02-24T06:37:44.733Z,6.25
2023-02-24T06:40:52.348Z,4.82
2023-02-24T06:43:56.803Z,5.82
2023-02-24T06:47:00.137Z,6.40
2023-02-24T06:50:03.065Z,4.85
2023-02-24T06:53:10.110Z,4.55
2023-02-24T06:56:15.895Z,8.07
2023-02-24T06:59:22.637Z,4.93
2023-02-24T07:02:33.307Z,5.10
2023-02-24T07:05:36.408Z,4.25
2023-02-24T07:08:39.556Z,5.50
2023-02-24T07:11:46.863Z,3.80
2023-02-24T07:14:51.412Z,6.88
2023-02-24T07:17:54.836Z,4.72
2023-02-24T07:21:05.230Z,4.13
2023-02-24T07:24:09.537Z,4.45
2023-02-24T07:27:22.661Z,4.55
2023-02-24T07:30:27.301Z,5.07
2023-02-24T07:33:30.373Z,3.88
2023-02-24T07:36:38.989Z,5.47
2023-02-24T07:39:43.061Z,5.97
2023-02-24T07:42:47.745Z,3.40
2023-02-24T07:45:53.865Z,6.53
2023-02-24T07:48:59.226Z,6.60
2023-02-24T07:52:02.328Z,4.57
2023-02-24T07:55:06.017Z,3.90
2023-02-24T07:58:10.638Z,5.18
2023-02-24T08:01:22.896Z,4.28
2023-02-24T08:04:27.883Z,5.63
2023-02-24T08:07:30.857Z,3.40
2023-02-24T08:10:37.046Z,5.50
2023-02-24T08:13:40.039Z,5.05
2023-02-24T08:16:45.634Z,3.78
2023-02-24T08:19:50.492Z,4.88
2023-02-24T08:22:55.390Z,4.78
2023-02-24T08:26:00.237Z,4.75
2023-02-24T08:29:07.437Z,4.20
2023-02-24T08:32:12.194Z,3.78
2023-02-24T08:35:17.119Z,4.10
2023-02-24T08:38:25.936Z,3.60
2023-02-24T08:41:45.915Z,4.15
2023-02-24T08:44:50.504Z,4.93
2023-02-24T08:48:00.506Z,6.00
2023-02-24T08:51:06.193Z,4.50
2023-02-24T08:54:15.427Z,5.90
2023-02-24T08:57:18.631Z,3.60
2023-02-24T09:00:41.904Z,5.38
2023-02-24T09:03:47.478Z,4.45
2023-02-24T09:07:10.604Z,5.63
2023-02-24T09:10:18.623Z,6.90
2023-02-24T09:13:21.671Z,8.02
2023-02-24T09:16:26.217Z,7.10
2023-02-24T09:20:01.785Z,6.55
2023-02-24T09:23:07.399Z,5.45
2023-02-24T09:26:11.117Z,7.13
2023-02-24T09:29:28.578Z,5.05
2023-02-24T09:32:34.757Z,7.40
2023-02-24T09:35:41.949Z,7.85
2023-02-24T09:39:10.789Z,5.75
2023-02-24T09:42:33.201Z,6.18
2023-02-24T09:45:39.799Z,3.72
2023-02-24T09:48:51.460Z,5.57
2023-02-24T09:52:08.903Z,8.88
2023-02-24T09:55:26.092Z,5.85
2023-02-24T09:58:43.919Z,5.25
2023-02-24T10:01:52.823Z,3.95
2023-02-24T10:05:07.400Z,7.80
2023-02-24T10:08:25.358Z,6.68
2023-02-24T10:11:36.683Z,7.30
2023-02-24T10:14:51.214Z,5.25
2023-02-24T10:17:57.356Z,6.72
2023-02-24T10:21:30.537Z,3.47
2023-02-24T10:24:41.297Z,4.47
2023-02-24T10:27:57.977Z,6.20
2023-02-24T10:31:11.236Z,5.82
2023-02-24T10:34:20.859Z,4.65
2023-02-24T10:37:29.562Z,5.47
2023-02-24T10:40:46.726Z,6.00
2023-02-24T10:43:57.661Z,5.72
2023-02-24T10:47:11.438Z,5.03
2023-02-24T10:50:23.946Z,5.72
2023-02-24T10:53:34.790Z,3.28
2023-02-24T10:56:44.851Z,3.25
2023-02-24T11:00:19.686Z,6.18
2023-02-24T11:03:36.034Z,2.80
2023-02-24T11:06:55.563Z,4.72
2023-02-24T11:10:12.257Z,3.90
2023-02-24T11:13:35.829Z,6.30
2023-02-24T11:17:01.903Z,6.72
2023-02-24T11:20:10.969Z,4.03
2023-02-24T11:23:17.504Z,6.68
2023-02-24T11:26:23.978Z,7.32
2023-02-24T11:29:48.421Z,8.65
2023-02-24T11:33:07.263Z,7.93
2023-02-24T11:36:20.564Z,10.45
2023-02-24T11:39:42.178Z,15.30
2023-02-24T11:42:51.054Z,17.08
2023-02-24T11:46:01.263Z,14.88
2023-02-24T11:49:16.656Z,11.82
2023-02-24T11:52:30.306Z,14.30
2023-02-24T11:55:38.818Z,14.82
2023-02-24T11:58:46.729Z,11.85
2023-02-24T12:01:56.695Z,16.52
2023-02-24T12:05:06.596Z,17.88
2023-02-24T12:08:19.962Z,17.35
2023-02-24T12:11:34.509Z,9.32
2023-02-24T12:14:41.400Z,9.27
2023-02-24T12:17:58.099Z,16.73
2023-02-24T12:21:06.806Z,12.25
2023-02-24T12:24:13.806Z,4.30
2023-02-24T12:27:28.702Z,12.18
2023-02-24T12:31:03.268Z,9.13
2023-02-24T12:34:14.519Z,9.48
2023-02-24T12:37:29.248Z,11.98
2023-02-24T12:40:45.867Z,7.78
2023-02-24T12:43:56.566Z,13.55
2023-02-24T12:47:07.618Z,8.63
2023-02-24T12:50:31.278Z,12.82
2023-02-24T12:53:41.525Z,11.93
2023-02-24T12:56:53.418Z,9.18
2023-02-24T12:59:58.240Z,14.52
2023-02-24T13:03:11.767Z,12.80
2023-02-24T13:06:26.572Z,14.48
2023-02-24T13:09:38.003Z,9.65
2023-02-24T13:12:48.498Z,15.70
2023-02-24T13:15:54.125Z,15.48
2023-02-24T13:19:06.868Z,15.15
2023-02-24T13:22:25.800Z,11.77
2023-02-24T13:25:33.844Z,13.02
2023-02-24T13:28:38.578Z,15.95
2023-02-24T13:31:48.037Z,11.00
2023-02-24T13:34:51.731Z,13.50
2023-02-24T13:37:56.115Z,10.82
2023-02-24T13:41:09.300Z,9.43
2023-02-24T13:44:25.037Z,10.32
2023-02-24T13:48:10.975Z,15.85
2023-02-24T13:51:41.373Z,11.73
2023-02-24T13:55:19.728Z,9.02
2023-02-24T13:58:45.995Z,13.85
2023-02-24T14:01:52.566Z,9.10
2023-02-24T14:04:58.895Z,7.57
2023-02-24T14:08:03.511Z,8.48
2023-02-24T14:11:10.935Z,6.47
2023-02-24T14:14:18.074Z,11.48
2023-02-24T14:17:28.577Z,7.68
2023-02-24T14:20:33.527Z,10.07
2023-02-24T14:23:37.701Z,7.30
2023-02-24T14:26:47.235Z,7.32
2023-02-24T14:29:52.871Z,8.43
2023-02-24T14:32:56.533Z,9.43
2023-02-24T14:36:01.131Z,8.95
2023-02-24T14:39:11.056Z,7.97
2023-02-24T14:42:16.145Z,7.38
2023-02-24T14:45:21.913Z,10.95
2023-02-24T14:48:27.541Z,12.05
2023-02-24T14:51:35.695Z,12.55
2023-02-24T14:54:45.011Z,9.85
2023-02-24T14:57:57.237Z,9.38
2023-02-24T15:01:05.052Z,11.90
2023-02-24T15:04:15.528Z,9.57
2023-02-24T15:07:22.393Z,16.60
2023-02-24T15:10:28.726Z,13.45
2023-02-24T15:13:39.206Z,13.00
2023-02-24T15:16:45.492Z,15.85
2023-02-24T15:19:54.327Z,10.32
2023-02-24T15:22:57.847Z,13.30
2023-02-24T15:26:01.604Z,6.65
2023-02-24T15:29:15.552Z,10.98
2023-02-24T15:32:20.603Z,9.93
2023-02-24T15:35:24.862Z,10.13
2023-02-24T15:38:33.227Z,18.33
2023-02-24T15:41:41.329Z,9.90
2023-02-24T15:44:54.592Z,11.07
2023-02-24T15:47:59.999Z,9.18
2023-02-24T15:51:06.685Z,8.23
2023-02-24T15:54:13.664Z,7.45
2023-02-24T15:57:18.429Z,10.98
2023-02-24T16:00:24.124Z,6.40
2023-02-24T16:03:27.059Z,8.07
2023-02-24T16:06:30.288Z,12.40
2023-02-24T16:09:36.408Z,10.05
2023-02-24T16:12:47.496Z,9.50
2023-02-24T16:15:52.490Z,8.77
2023-02-24T16:18:56.753Z,12.63
2023-02-24T16:22:00.226Z,16.48
2023-02-24T16:25:03.280Z,14.60
2023-02-24T16:28:06.508Z,13.73
2023-02-24T16:31:11.063Z,11.80
2023-02-24T16:34:16.346Z,9.23
2023-02-24T16:37:22.066Z,6.63
2023-02-24T16:40:27.964Z,8.15
2023-02-24T16:43:31.012Z,9.25
2023-02-24T16:46:41.120Z,7.50
2023-02-24T16:49:44.650Z,13.82
2023-02-24T16:52:47.702Z,8.90
2023-02-24T16:55:51.608Z,9.48
2023-02-24T16:58:54.634Z,9.43
2023-02-24T17:02:02.166Z,14.10
2023-02-24T17:05:05.658Z,10.52
2023-02-24T17:08:08.674Z,13.20
2023-02-24T17:11:13.454Z,5.22
2023-02-24T17:14:19.292Z,9.75
2023-02-24T17:17:23.618Z,5.47
2023-02-24T17:20:26.649Z,11.77
2023-02-24T17:23:29.789Z,6.30
2023-02-24T17:26:33.298Z,8.45
2023-02-24T17:29:36.395Z,7.05
2023-02-24T17:32:40.952Z,9.10
2023-02-24T17:35:44.648Z,6.30
2023-02-24T17:38:47.636Z,9.82
2023-02-24T17:41:50.725Z,9.40
2023-02-24T17:44:53.801Z,7.80
2023-02-24T17:47:58.243Z,7.18
2023-02-24T17:51:01.297Z,10.50
2023-02-24T17:54:04.950Z,7.93
2023-02-24T17:57:09.047Z,6.75
2023-02-24T18:00:13.058Z,8.05
2023-02-24T18:03:17.834Z,7.90
2023-02-24T18:06:21.311Z,6.40
2023-02-24T18:09:24.681Z,10.05
2023-02-24T18:12:27.988Z,9.07
2023-02-24T18:15:31.044Z,6.65
2023-02-24T18:18:35.572Z,7.18
2023-02-24T18:21:39.104Z,8.77
2023-02-24T18:24:42.113Z,9.40
2023-02-24T18:27:45.182Z,6.55
2023-02-24T18:30:48.458Z,6.65
2023-02-24T18:33:53.258Z,9.65
2023-02-24T18:36:56.418Z,6.82
2023-02-24T18:39:59.482Z,10.20
2023-02-24T18:43:03.018Z,8.60
2023-02-24T18:46:08.322Z,6.25
2023-02-24T18:49:13.220Z,6.95
2023-02-24T18:52:16.245Z,8.73
2023-02-24T18:55:19.772Z,7.93
2023-02-24T18:58:22.880Z,8.18
2023-02-24T19:01:27.844Z,9.35
2023-02-24T19:04:32.365Z,9.95
2023-02-24T19:07:35.363Z,10.70
2023-02-24T19:10:40.217Z,10.25
2023-02-24T19:13:43.691Z,8.43
2023-02-24T19:16:47.241Z,6.38
2023-02-24T19:19:52.092Z,6.75
2023-02-24T19:22:55.509Z,9.50
2023-02-24T19:25:59.026Z,6.95
2023-02-24T19:29:02.393Z,8.25
2023-02-24T19:32:05.682Z,7.88
2023-02-24T19:35:10.366Z,7.78
2023-02-24T19:38:15.856Z,11.15
2023-02-24T19:41:19.430Z,8.55
2023-02-24T19:44:22.610Z,12.52
2023-02-24T19:47:25.615Z,6.60
2023-02-24T19:50:30.021Z,8.80
2023-02-24T19:53:33.081Z,6.60
2023-02-24T19:56:37.710Z,11.88
2023-02-24T19:59:40.656Z,9.57
2023-02-24T20:02:43.760Z,10.73
2023-02-24T20:05:48.561Z,7.47
2023-02-24T20:08:51.761Z,10.07
2023-02-24T20:11:57.272Z,9.98
2023-02-24T20:15:00.420Z,9.60
2023-02-24T20:18:07.651Z,10.90
2023-02-24T20:21:13.474Z,8.20
2023-02-24T20:24:19.000Z,9.68
2023-02-24T20:27:22.446Z,10.45
2023-02-24T20:30:25.501Z,7.47
2023-02-24T20:33:28.485Z,6.88
2023-02-24T20:36:33.419Z,13.45
2023-02-24T20:39:36.505Z,7.82
2023-02-24T20:42:39.596Z,7.93
2023-02-24T20:45:43.079Z,8.15
2023-02-24T20:48:46.477Z,7.80
2023-02-24T20:51:51.024Z,7.15
2023-02-24T20:54:54.060Z,6.53
2023-02-24T20:57:57.075Z,7.88
2023-02-24T21:01:00.125Z,8.18
2023-02-24T21:04:04.064Z,6.55
2023-02-24T21:07:08.578Z,8.05
2023-02-24T21:10:13.664Z,6.88
2023-02-24T21:13:18.208Z,6.10
2023-02-24T21:16:22.806Z,6.88
2023-02-24T21:19:26.155Z,8.60
2023-02-24T21:22:31.250Z,9.95
2023-02-24T21:25:34.390Z,6.60
2023-02-24T21:28:37.584Z,7.13
2023-02-24T21:31:40.862Z,8.43
2023-02-24T21:34:44.027Z,9.27
2023-02-24T21:37:48.853Z,8.60
2023-02-24T21:40:51.887Z,6.72
2023-02-24T21:43:55.895Z,6.80
2023-02-24T21:46:59.100Z,6.82
2023-02-24T21:50:02.043Z,5.60
2023-02-24T21:53:07.140Z,6.57
2023-02-24T21:56:16.474Z,7.88
2023-02-24T21:59:19.867Z,6.88
2023-02-24T22:02:22.898Z,7.32
2023-02-24T22:05:27.345Z,6.20
2023-02-24T22:08:31.837Z,8.95
2023-02-24T22:11:37.227Z,8.45
2023-02-24T22:14:40.389Z,7.15
2023-02-24T22:17:44.216Z,7.82
2023-02-24T22:20:47.180Z,13.60
2023-02-24T22:23:53.233Z,9.32
2023-02-24T22:26:56.437Z,10.00
2023-02-24T22:29:59.678Z,10.75
2023-02-24T22:33:02.668Z,10.15
2023-02-24T22:36:07.716Z,10.75
2023-02-24T22:39:16.625Z,10.77
2023-02-24T22:42:19.682Z,9.68
2023-02-24T22:45:22.716Z,11.73
2023-02-24T22:48:26.751Z,11.23
2023-02-24T22:51:30.138Z,8.35
2023-02-24T22:54:34.506Z,10.95
2023-02-24T22:57:37.560Z,11.90
2023-02-24T23:00:41.853Z,10.68
2023-02-24T23:03:46.195Z,8.40
2023-02-24T23:06:49.333Z,12.13
2023-02-24T23:09:54.378Z,9.75
2023-02-24T23:12:57.402Z,8.50
2023-02-24T23:16:03.511Z,10.32
2023-02-24T23:19:12.861Z,9.75
2023-02-24T23:22:16.315Z,10.65
2023-02-24T23:25:22.560Z,14.70
2023-02-24T23:28:26.925Z,11.65
2023-02-24T23:31:30.319Z,9.73
2023-02-24T23:34:33.310Z,7.15
2023-02-24T23:37:36.358Z,15.10
2023-02-24T23:40:51.130Z,7.70
2023-02-24T23:43:54.392Z,7.28
2023-02-24T23:46:58.615Z,10.63
2023-02-24T23:50:01.767Z,8.27
2023-02-24T23:53:05.407Z,5.43
2023-02-24T23:56:12.749Z,6.13
2023-02-24T23:59:15.951Z,6.28
